sensor_id;sensor_type;location;lat;lon;timestamp;P1;durP1;ratioP1;P2;durP2;ratioP2
7195;SDS011;3639;51.308;5.624;2023-04-24T00:00:33;9.27;;;5.60;;
7195;SDS011;3639;51.308;5.624;2023-04-24T00:02:59;6.83;;;5.80;;
7195;SDS011;3639;51.308;5.624;2023-04-24T00:05:24;10.87;;;6.30;;
7195;SDS011;3639;51.308;5.624;2023-04-24T00:07:50;10.83;;;6.40;;
7195;SDS011;3639;51.308;5.624;2023-04-24T00:10:17;6.63;;;5.53;;
7195;SDS011;3639;51.308;5.624;2023-04-24T00:12:43;9.17;;;5.90;;
7195;SDS011;3639;51.308;5.624;2023-04-24T00:15:09;9.23;;;6.60;;
7195;SDS011;3639;51.308;5.624;2023-04-24T00:17:36;9.17;;;6.33;;
7195;SDS011;3639;51.308;5.624;2023-04-24T00:20:01;11.60;;;6.30;;
7195;SDS011;3639;51.308;5.624;2023-04-24T00:22:29;10.20;;;6.47;;
7195;SDS011;3639;51.308;5.624;2023-04-24T00:24:56;12.13;;;6.50;;
7195;SDS011;3639;51.308;5.624;2023-04-24T00:27:22;11.73;;;7.60;;
7195;SDS011;3639;51.308;5.624;2023-04-24T00:29:48;13.27;;;7.07;;
7195;SDS011;3639;51.308;5.624;2023-04-24T00:32:14;10.00;;;7.20;;
7195;SDS011;3639;51.308;5.624;2023-04-24T00:34:40;13.33;;;7.57;;
7195;SDS011;3639;51.308;5.624;2023-04-24T00:37:06;12.27;;;7.70;;
7195;SDS011;3639;51.308;5.624;2023-04-24T00:39:32;11.77;;;7.50;;
7195;SDS011;3639;51.308;5.624;2023-04-24T00:41:57;14.47;;;7.63;;
7195;SDS011;3639;51.308;5.624;2023-04-24T00:44:24;13.10;;;8.40;;
7195;SDS011;3639;51.308;5.624;2023-04-24T00:46:49;11.37;;;6.80;;
7195;SDS011;3639;51.308;5.624;2023-04-24T00:49:19;13.67;;;8.03;;
7195;SDS011;3639;51.308;5.624;2023-04-24T00:51:48;14.73;;;7.33;;
7195;SDS011;3639;51.308;5.624;2023-04-24T00:54:16;13.60;;;8.73;;
7195;SDS011;3639;51.308;5.624;2023-04-24T00:56:42;11.47;;;7.83;;
7195;SDS011;3639;51.308;5.624;2023-04-24T00:59:08;11.10;;;8.17;;
7195;SDS011;3639;51.308;5.624;2023-04-24T01:01:34;13.83;;;8.10;;
7195;SDS011;3639;51.308;5.624;2023-04-24T01:04:00;10.73;;;7.73;;
7195;SDS011;3639;51.308;5.624;2023-04-24T01:06:27;18.10;;;8.97;;
7195;SDS011;3639;51.308;5.624;2023-04-24T01:08:54;13.63;;;8.93;;
7195;SDS011;3639;51.308;5.624;2023-04-24T01:11:23;15.07;;;8.87;;
7195;SDS011;3639;51.308;5.624;2023-04-24T01:13:50;14.73;;;8.50;;
7195;SDS011;3639;51.308;5.624;2023-04-24T01:16:16;15.57;;;8.73;;
7195;SDS011;3639;51.308;5.624;2023-04-24T01:18:42;15.10;;;9.50;;
7195;SDS011;3639;51.308;5.624;2023-04-24T01:21:09;17.67;;;8.80;;
7195;SDS011;3639;51.308;5.624;2023-04-24T01:23:38;15.83;;;9.40;;
7195;SDS011;3639;51.308;5.624;2023-04-24T01:26:05;16.27;;;10.17;;
7195;SDS011;3639;51.308;5.624;2023-04-24T01:28:30;19.17;;;9.47;;
7195;SDS011;3639;51.308;5.624;2023-04-24T01:30:56;15.87;;;9.27;;
7195;SDS011;3639;51.308;5.624;2023-04-24T01:33:22;16.90;;;10.10;;
7195;SDS011;3639;51.308;5.624;2023-04-24T01:35:48;20.63;;;9.97;;
7195;SDS011;3639;51.308;5.624;2023-04-24T01:38:14;17.03;;;9.93;;
7195;SDS011;3639;51.308;5.624;2023-04-24T01:40:40;19.97;;;10.60;;
7195;SDS011;3639;51.308;5.624;2023-04-24T01:43:05;20.30;;;10.73;;
7195;SDS011;3639;51.308;5.624;2023-04-24T01:45:31;17.47;;;10.90;;
7195;SDS011;3639;51.308;5.624;2023-04-24T01:47:57;21.43;;;10.73;;
7195;SDS011;3639;51.308;5.624;2023-04-24T01:50:23;20.30;;;10.90;;
7195;SDS011;3639;51.308;5.624;2023-04-24T01:52:49;20.57;;;11.53;;
7195;SDS011;3639;51.308;5.624;2023-04-24T01:55:15;27.13;;;12.03;;
7195;SDS011;3639;51.308;5.624;2023-04-24T01:57:40;18.37;;;11.23;;
7195;SDS011;3639;51.308;5.624;2023-04-24T02:00:06;18.43;;;11.57;;
7195;SDS011;3639;51.308;5.624;2023-04-24T02:02:32;20.63;;;12.33;;
7195;SDS011;3639;51.308;5.624;2023-04-24T02:04:58;20.53;;;10.90;;
7195;SDS011;3639;51.308;5.624;2023-04-24T02:07:24;20.53;;;11.97;;
7195;SDS011;3639;51.308;5.624;2023-04-24T02:09:50;23.97;;;11.87;;
7195;SDS011;3639;51.308;5.624;2023-04-24T02:12:15;16.30;;;11.30;;
7195;SDS011;3639;51.308;5.624;2023-04-24T02:14:42;23.40;;;11.87;;
7195;SDS011;3639;51.308;5.624;2023-04-24T02:17:08;15.80;;;10.63;;
7195;SDS011;3639;51.308;5.624;2023-04-24T02:19:34;20.63;;;11.70;;
7195;SDS011;3639;51.308;5.624;2023-04-24T02:22:00;21.67;;;11.27;;
7195;SDS011;3639;51.308;5.624;2023-04-24T02:24:25;19.83;;;12.13;;
7195;SDS011;3639;51.308;5.624;2023-04-24T02:26:51;16.10;;;10.70;;
7195;SDS011;3639;51.308;5.624;2023-04-24T02:29:17;20.03;;;11.63;;
7195;SDS011;3639;51.308;5.624;2023-04-24T02:31:42;17.67;;;11.20;;
7195;SDS011;3639;51.308;5.624;2023-04-24T02:34:08;20.73;;;10.43;;
7195;SDS011;3639;51.308;5.624;2023-04-24T02:36:34;15.93;;;10.93;;
7195;SDS011;3639;51.308;5.624;2023-04-24T02:38:59;19.53;;;11.47;;
7195;SDS011;3639;51.308;5.624;2023-04-24T02:41:26;16.77;;;10.70;;
7195;SDS011;3639;51.308;5.624;2023-04-24T02:43:56;16.60;;;9.97;;
7195;SDS011;3639;51.308;5.624;2023-04-24T02:46:22;22.47;;;10.97;;
7195;SDS011;3639;51.308;5.624;2023-04-24T02:48:48;17.23;;;10.03;;
7195;SDS011;3639;51.308;5.624;2023-04-24T02:51:13;15.50;;;10.30;;
7195;SDS011;3639;51.308;5.624;2023-04-24T02:53:39;16.83;;;10.20;;
7195;SDS011;3639;51.308;5.624;2023-04-24T02:56:05;18.17;;;10.17;;
7195;SDS011;3639;51.308;5.624;2023-04-24T02:58:30;17.40;;;10.30;;
7195;SDS011;3639;51.308;5.624;2023-04-24T03:00:56;15.93;;;10.37;;
7195;SDS011;3639;51.308;5.624;2023-04-24T03:03:22;18.33;;;10.57;;
7195;SDS011;3639;51.308;5.624;2023-04-24T03:05:47;18.60;;;9.83;;
7195;SDS011;3639;51.308;5.624;2023-04-24T03:08:13;16.77;;;10.23;;
7195;SDS011;3639;51.308;5.624;2023-04-24T03:10:39;17.83;;;9.53;;
7195;SDS011;3639;51.308;5.624;2023-04-24T03:13:05;13.53;;;9.50;;
7195;SDS011;3639;51.308;5.624;2023-04-24T03:15:30;16.30;;;9.63;;
7195;SDS011;3639;51.308;5.624;2023-04-24T03:17:56;14.20;;;8.97;;
7195;SDS011;3639;51.308;5.624;2023-04-24T03:20:22;17.20;;;9.63;;
7195;SDS011;3639;51.308;5.624;2023-04-24T03:22:47;12.97;;;8.50;;
7195;SDS011;3639;51.308;5.624;2023-04-24T03:25:13;16.87;;;8.70;;
7195;SDS011;3639;51.308;5.624;2023-04-24T03:27:39;13.43;;;9.73;;
7195;SDS011;3639;51.308;5.624;2023-04-24T03:30:05;13.30;;;8.50;;
7195;SDS011;3639;51.308;5.624;2023-04-24T03:32:32;18.37;;;8.43;;
7195;SDS011;3639;51.308;5.624;2023-04-24T03:34:58;15.27;;;9.40;;
7195;SDS011;3639;51.308;5.624;2023-04-24T03:37:23;13.40;;;8.30;;
7195;SDS011;3639;51.308;5.624;2023-04-24T03:39:49;15.93;;;8.80;;
7195;SDS011;3639;51.308;5.624;2023-04-24T03:42:15;17.53;;;9.30;;
7195;SDS011;3639;51.308;5.624;2023-04-24T03:44:40;12.83;;;7.70;;
7195;SDS011;3639;51.308;5.624;2023-04-24T03:47:06;13.93;;;9.03;;
7195;SDS011;3639;51.308;5.624;2023-04-24T03:49:32;12.80;;;8.13;;
7195;SDS011;3639;51.308;5.624;2023-04-24T03:51:57;14.70;;;9.13;;
7195;SDS011;3639;51.308;5.624;2023-04-24T03:54:23;12.73;;;7.60;;
7195;SDS011;3639;51.308;5.624;2023-04-24T03:56:49;12.13;;;7.63;;
7195;SDS011;3639;51.308;5.624;2023-04-24T03:59:14;10.00;;;7.17;;
7195;SDS011;3639;51.308;5.624;2023-04-24T04:01:40;13.67;;;7.33;;
7195;SDS011;3639;51.308;5.624;2023-04-24T04:04:06;13.60;;;8.17;;
7195;SDS011;3639;51.308;5.624;2023-04-24T04:06:33;13.13;;;8.47;;
7195;SDS011;3639;51.308;5.624;2023-04-24T04:08:59;11.10;;;7.93;;
7195;SDS011;3639;51.308;5.624;2023-04-24T04:11:25;11.93;;;7.47;;
7195;SDS011;3639;51.308;5.624;2023-04-24T04:13:50;14.13;;;7.90;;
7195;SDS011;3639;51.308;5.624;2023-04-24T04:16:16;10.83;;;7.40;;
7195;SDS011;3639;51.308;5.624;2023-04-24T04:18:42;11.13;;;6.93;;
7195;SDS011;3639;51.308;5.624;2023-04-24T04:21:09;12.20;;;7.77;;
7195;SDS011;3639;51.308;5.624;2023-04-24T04:23:34;13.17;;;7.40;;
7195;SDS011;3639;51.308;5.624;2023-04-24T04:26:00;10.40;;;7.53;;
7195;SDS011;3639;51.308;5.624;2023-04-24T04:28:27;10.93;;;7.47;;
7195;SDS011;3639;51.308;5.624;2023-04-24T04:30:53;11.47;;;7.77;;
7195;SDS011;3639;51.308;5.624;2023-04-24T04:33:22;12.40;;;7.70;;
7195;SDS011;3639;51.308;5.624;2023-04-24T04:35:51;12.67;;;7.77;;
7195;SDS011;3639;51.308;5.624;2023-04-24T04:38:17;16.73;;;9.10;;
7195;SDS011;3639;51.308;5.624;2023-04-24T04:40:44;12.47;;;8.40;;
7195;SDS011;3639;51.308;5.624;2023-04-24T04:43:10;14.10;;;8.50;;
7195;SDS011;3639;51.308;5.624;2023-04-24T04:45:38;12.17;;;8.07;;
7195;SDS011;3639;51.308;5.624;2023-04-24T04:48:05;11.07;;;7.63;;
7195;SDS011;3639;51.308;5.624;2023-04-24T04:50:32;13.53;;;8.57;;
7195;SDS011;3639;51.308;5.624;2023-04-24T04:52:58;14.10;;;7.77;;
7195;SDS011;3639;51.308;5.624;2023-04-24T04:55:24;12.90;;;8.10;;
7195;SDS011;3639;51.308;5.624;2023-04-24T04:57:50;12.07;;;8.03;;
7195;SDS011;3639;51.308;5.624;2023-04-24T05:00:16;10.00;;;7.13;;
7195;SDS011;3639;51.308;5.624;2023-04-24T05:02:41;10.57;;;7.43;;
7195;SDS011;3639;51.308;5.624;2023-04-24T05:05:07;13.23;;;8.30;;
7195;SDS011;3639;51.308;5.624;2023-04-24T05:07:33;17.70;;;8.30;;
7195;SDS011;3639;51.308;5.624;2023-04-24T05:09:59;12.40;;;7.70;;
7195;SDS011;3639;51.308;5.624;2023-04-24T05:12:25;15.83;;;8.30;;
7195;SDS011;3639;51.308;5.624;2023-04-24T05:14:51;13.17;;;8.53;;
7195;SDS011;3639;51.308;5.624;2023-04-24T05:17:17;11.93;;;7.63;;
7195;SDS011;3639;51.308;5.624;2023-04-24T05:19:43;10.17;;;7.23;;
7195;SDS011;3639;51.308;5.624;2023-04-24T05:22:09;11.03;;;6.87;;
7195;SDS011;3639;51.308;5.624;2023-04-24T05:24:37;10.93;;;5.63;;
7195;SDS011;3639;51.308;5.624;2023-04-24T05:27:03;10.83;;;7.50;;
7195;SDS011;3639;51.308;5.624;2023-04-24T05:29:29;14.90;;;7.03;;
7195;SDS011;3639;51.308;5.624;2023-04-24T05:31:56;9.07;;;6.23;;
7195;SDS011;3639;51.308;5.624;2023-04-24T05:34:22;10.13;;;6.17;;
7195;SDS011;3639;51.308;5.624;2023-04-24T05:36:48;7.27;;;5.63;;
7195;SDS011;3639;51.308;5.624;2023-04-24T05:39:15;5.93;;;4.07;;
7195;SDS011;3639;51.308;5.624;2023-04-24T05:41:41;5.23;;;4.20;;
7195;SDS011;3639;51.308;5.624;2023-04-24T05:44:07;4.87;;;4.00;;
7195;SDS011;3639;51.308;5.624;2023-04-24T05:46:32;6.07;;;4.27;;
7195;SDS011;3639;51.308;5.624;2023-04-24T05:48:58;4.63;;;3.63;;
7195;SDS011;3639;51.308;5.624;2023-04-24T05:51:24;3.87;;;3.40;;
7195;SDS011;3639;51.308;5.624;2023-04-24T05:53:50;5.10;;;3.73;;
7195;SDS011;3639;51.308;5.624;2023-04-24T05:56:16;4.67;;;3.53;;
7195;SDS011;3639;51.308;5.624;2023-04-24T05:58:42;7.50;;;3.63;;
7195;SDS011;3639;51.308;5.624;2023-04-24T06:01:08;9.50;;;4.47;;
7195;SDS011;3639;51.308;5.624;2023-04-24T06:03:34;5.63;;;4.00;;
7195;SDS011;3639;51.308;5.624;2023-04-24T06:06:00;4.90;;;3.70;;
7195;SDS011;3639;51.308;5.624;2023-04-24T06:08:25;6.43;;;3.40;;
7195;SDS011;3639;51.308;5.624;2023-04-24T06:10:51;3.37;;;2.97;;
7195;SDS011;3639;51.308;5.624;2023-04-24T06:13:17;5.67;;;3.03;;
7195;SDS011;3639;51.308;5.624;2023-04-24T06:15:43;3.00;;;2.50;;
7195;SDS011;3639;51.308;5.624;2023-04-24T06:18:08;3.03;;;2.50;;
7195;SDS011;3639;51.308;5.624;2023-04-24T06:20:37;3.03;;;2.67;;
7195;SDS011;3639;51.308;5.624;2023-04-24T06:23:03;2.50;;;2.30;;
7195;SDS011;3639;51.308;5.624;2023-04-24T06:25:29;2.67;;;2.30;;
7195;SDS011;3639;51.308;5.624;2023-04-24T06:27:55;3.73;;;2.57;;
7195;SDS011;3639;51.308;5.624;2023-04-24T06:30:21;2.73;;;2.30;;
7195;SDS011;3639;51.308;5.624;2023-04-24T06:32:47;3.33;;;2.57;;
7195;SDS011;3639;51.308;5.624;2023-04-24T06:35:12;5.70;;;3.40;;
7195;SDS011;3639;51.308;5.624;2023-04-24T06:37:39;3.83;;;3.10;;
7195;SDS011;3639;51.308;5.624;2023-04-24T06:40:07;5.37;;;3.53;;
7195;SDS011;3639;51.308;5.624;2023-04-24T06:42:33;4.37;;;3.17;;
7195;SDS011;3639;51.308;5.624;2023-04-24T06:45:00;5.37;;;3.70;;
7195;SDS011;3639;51.308;5.624;2023-04-24T06:47:25;8.23;;;3.83;;
7195;SDS011;3639;51.308;5.624;2023-04-24T06:49:51;6.50;;;4.23;;
7195;SDS011;3639;51.308;5.624;2023-04-24T06:52:17;5.93;;;4.20;;
7195;SDS011;3639;51.308;5.624;2023-04-24T06:54:43;8.37;;;4.07;;
7195;SDS011;3639;51.308;5.624;2023-04-24T06:57:09;7.50;;;4.43;;
7195;SDS011;3639;51.308;5.624;2023-04-24T06:59:35;7.40;;;4.83;;
7195;SDS011;3639;51.308;5.624;2023-04-24T07:02:01;7.37;;;5.40;;
7195;SDS011;3639;51.308;5.624;2023-04-24T07:04:28;8.90;;;4.97;;
7195;SDS011;3639;51.308;5.624;2023-04-24T07:06:54;7.17;;;4.90;;
7195;SDS011;3639;51.308;5.624;2023-04-24T07:09:21;8.17;;;5.33;;
7195;SDS011;3639;51.308;5.624;2023-04-24T07:11:48;7.40;;;5.63;;
7195;SDS011;3639;51.308;5.624;2023-04-24T07:14:14;11.97;;;6.17;;
7195;SDS011;3639;51.308;5.624;2023-04-24T07:16:40;11.70;;;6.60;;
7195;SDS011;3639;51.308;5.624;2023-04-24T07:19:07;9.37;;;6.00;;
7195;SDS011;3639;51.308;5.624;2023-04-24T07:21:32;10.47;;;7.10;;
7195;SDS011;3639;51.308;5.624;2023-04-24T07:23:58;10.37;;;7.00;;
7195;SDS011;3639;51.308;5.624;2023-04-24T07:26:25;9.23;;;6.23;;
7195;SDS011;3639;51.308;5.624;2023-04-24T07:28:51;13.13;;;6.90;;
7195;SDS011;3639;51.308;5.624;2023-04-24T07:31:17;11.33;;;6.70;;
7195;SDS011;3639;51.308;5.624;2023-04-24T07:33:42;14.10;;;6.27;;
7195;SDS011;3639;51.308;5.624;2023-04-24T07:36:08;15.47;;;7.27;;
7195;SDS011;3639;51.308;5.624;2023-04-24T07:38:40;8.80;;;5.93;;
7195;SDS011;3639;51.308;5.624;2023-04-24T07:41:06;12.73;;;7.10;;
7195;SDS011;3639;51.308;5.624;2023-04-24T07:43:32;13.30;;;7.00;;
7195;SDS011;3639;51.308;5.624;2023-04-24T07:45:57;11.43;;;7.83;;
7195;SDS011;3639;51.308;5.624;2023-04-24T07:48:23;15.53;;;7.30;;
7195;SDS011;3639;51.308;5.624;2023-04-24T07:50:51;20.77;;;7.93;;
7195;SDS011;3639;51.308;5.624;2023-04-24T07:53:16;15.67;;;7.77;;
7195;SDS011;3639;51.308;5.624;2023-04-24T07:55:42;16.40;;;7.83;;
7195;SDS011;3639;51.308;5.624;2023-04-24T07:58:08;15.93;;;7.57;;
7195;SDS011;3639;51.308;5.624;2023-04-24T08:00:33;15.03;;;6.87;;
7195;SDS011;3639;51.308;5.624;2023-04-24T08:02:59;13.80;;;7.40;;
7195;SDS011;3639;51.308;5.624;2023-04-24T08:05:25;10.90;;;6.70;;
7195;SDS011;3639;51.308;5.624;2023-04-24T08:07:52;14.07;;;7.30;;
7195;SDS011;3639;51.308;5.624;2023-04-24T08:10:18;14.47;;;6.60;;
7195;SDS011;3639;51.308;5.624;2023-04-24T08:12:43;13.33;;;6.17;;
7195;SDS011;3639;51.308;5.624;2023-04-24T08:15:09;14.50;;;7.27;;
7195;SDS011;3639;51.308;5.624;2023-04-24T08:17:35;11.27;;;7.43;;
7195;SDS011;3639;51.308;5.624;2023-04-24T08:20:02;14.60;;;6.97;;
7195;SDS011;3639;51.308;5.624;2023-04-24T08:22:30;14.37;;;7.90;;
7195;SDS011;3639;51.308;5.624;2023-04-24T08:24:56;16.03;;;8.20;;
7195;SDS011;3639;51.308;5.624;2023-04-24T08:27:22;13.20;;;7.07;;
7195;SDS011;3639;51.308;5.624;2023-04-24T08:29:49;18.50;;;7.90;;
7195;SDS011;3639;51.308;5.624;2023-04-24T08:32:14;13.27;;;7.50;;
7195;SDS011;3639;51.308;5.624;2023-04-24T08:34:40;16.37;;;7.57;;
7195;SDS011;3639;51.308;5.624;2023-04-24T08:37:06;13.03;;;6.03;;
7195;SDS011;3639;51.308;5.624;2023-04-24T08:39:31;15.97;;;6.27;;
7195;SDS011;3639;51.308;5.624;2023-04-24T08:41:57;15.30;;;6.30;;
7195;SDS011;3639;51.308;5.624;2023-04-24T08:44:30;19.20;;;5.83;;
7195;SDS011;3639;51.308;5.624;2023-04-24T08:46:57;10.13;;;5.20;;
7195;SDS011;3639;51.308;5.624;2023-04-24T08:49:23;11.60;;;5.23;;
7195;SDS011;3639;51.308;5.624;2023-04-24T08:51:50;12.97;;;5.23;;
7195;SDS011;3639;51.308;5.624;2023-04-24T08:54:17;13.33;;;5.40;;
7195;SDS011;3639;51.308;5.624;2023-04-24T08:56:43;9.67;;;5.00;;
7195;SDS011;3639;51.308;5.624;2023-04-24T08:59:10;9.10;;;5.00;;
7195;SDS011;3639;51.308;5.624;2023-04-24T09:01:37;14.70;;;6.07;;
7195;SDS011;3639;51.308;5.624;2023-04-24T09:04:04;11.97;;;4.90;;
7195;SDS011;3639;51.308;5.624;2023-04-24T09:06:33;9.77;;;4.80;;
7195;SDS011;3639;51.308;5.624;2023-04-24T09:09:00;14.33;;;4.73;;
7195;SDS011;3639;51.308;5.624;2023-04-24T09:11:26;13.47;;;4.73;;
7195;SDS011;3639;51.308;5.624;2023-04-24T09:13:53;8.10;;;4.37;;
7195;SDS011;3639;51.308;5.624;2023-04-24T09:16:20;6.10;;;4.30;;
7195;SDS011;3639;51.308;5.624;2023-04-24T09:18:45;10.87;;;4.90;;
7195;SDS011;3639;51.308;5.624;2023-04-24T09:21:11;4.97;;;3.50;;
7195;SDS011;3639;51.308;5.624;2023-04-24T09:23:37;10.40;;;3.70;;
7195;SDS011;3639;51.308;5.624;2023-04-24T09:26:04;9.17;;;3.37;;
7195;SDS011;3639;51.308;5.624;2023-04-24T09:31:12;10.90;;;4.00;;
7195;SDS011;3639;51.308;5.624;2023-04-24T09:34:19;8.97;;;3.93;;
7195;SDS011;3639;51.308;5.624;2023-04-24T09:36:38;5.60;;;3.83;;
7195;SDS011;3639;51.308;5.624;2023-04-24T09:39:07;9.67;;;3.40;;
7195;SDS011;3639;51.308;5.624;2023-04-24T09:41:33;9.33;;;3.57;;
7195;SDS011;3639;51.308;5.624;2023-04-24T09:44:12;8.90;;;3.43;;
7195;SDS011;3639;51.308;5.624;2023-04-24T09:46:48;7.73;;;3.70;;
7195;SDS011;3639;51.308;5.624;2023-04-24T09:49:16;8.93;;;2.97;;
7195;SDS011;3639;51.308;5.624;2023-04-24T09:51:45;12.63;;;3.27;;
7195;SDS011;3639;51.308;5.624;2023-04-24T09:54:15;6.40;;;2.67;;
7195;SDS011;3639;51.308;5.624;2023-04-24T09:56:43;9.30;;;3.37;;
7195;SDS011;3639;51.308;5.624;2023-04-24T09:59:13;8.23;;;3.20;;
7195;SDS011;3639;51.308;5.624;2023-04-24T10:01:39;8.90;;;3.30;;
7195;SDS011;3639;51.308;5.624;2023-04-24T10:04:14;12.00;;;3.13;;
7195;SDS011;3639;51.308;5.624;2023-04-24T10:06:42;15.77;;;3.60;;
7195;SDS011;3639;51.308;5.624;2023-04-24T10:09:08;9.70;;;3.20;;
7195;SDS011;3639;51.308;5.624;2023-04-24T10:11:36;9.33;;;3.30;;
7195;SDS011;3639;51.308;5.624;2023-04-24T10:14:02;8.17;;;3.90;;
7195;SDS011;3639;51.308;5.624;2023-04-24T10:16:29;7.33;;;3.13;;
7195;SDS011;3639;51.308;5.624;2023-04-24T10:18:57;7.43;;;3.50;;
7195;SDS011;3639;51.308;5.624;2023-04-24T10:21:25;7.63;;;3.27;;
7195;SDS011;3639;51.308;5.624;2023-04-24T10:23:52;4.80;;;2.87;;
7195;SDS011;3639;51.308;5.624;2023-04-24T10:26:19;7.37;;;2.80;;
7195;SDS011;3639;51.308;5.624;2023-04-24T10:28:45;8.33;;;3.47;;
7195;SDS011;3639;51.308;5.624;2023-04-24T10:31:12;5.70;;;3.00;;
7195;SDS011;3639;51.308;5.624;2023-04-24T10:33:39;5.33;;;3.00;;
7195;SDS011;3639;51.308;5.624;2023-04-24T10:36:08;3.43;;;2.33;;
7195;SDS011;3639;51.308;5.624;2023-04-24T10:38:35;6.47;;;2.93;;
7195;SDS011;3639;51.308;5.624;2023-04-24T10:41:07;5.17;;;2.77;;
7195;SDS011;3639;51.308;5.624;2023-04-24T10:43:41;8.43;;;2.70;;
7195;SDS011;3639;51.308;5.624;2023-04-24T10:46:07;6.07;;;2.70;;
7195;SDS011;3639;51.308;5.624;2023-04-24T10:48:35;3.80;;;2.80;;
7195;SDS011;3639;51.308;5.624;2023-04-24T10:51:01;12.67;;;4.37;;
7195;SDS011;3639;51.308;5.624;2023-04-24T10:53:28;5.70;;;2.70;;
7195;SDS011;3639;51.308;5.624;2023-04-24T10:55:58;3.90;;;2.20;;
7195;SDS011;3639;51.308;5.624;2023-04-24T10:58:41;4.87;;;2.60;;
7195;SDS011;3639;51.308;5.624;2023-04-24T11:03:55;3.27;;;2.37;;
7195;SDS011;3639;51.308;5.624;2023-04-24T11:06:28;2.20;;;1.80;;
7195;SDS011;3639;51.308;5.624;2023-04-24T11:09:01;1.67;;;1.47;;
7195;SDS011;3639;51.308;5.624;2023-04-24T11:11:30;2.43;;;1.73;;
7195;SDS011;3639;51.308;5.624;2023-04-24T11:16:31;4.03;;;2.23;;
7195;SDS011;3639;51.308;5.624;2023-04-24T11:21:45;4.03;;;1.80;;
7195;SDS011;3639;51.308;5.624;2023-04-24T11:30:29;4.40;;;1.63;;
7195;SDS011;3639;51.308;5.624;2023-04-24T11:32:38;2.97;;;2.23;;
7195;SDS011;3639;51.308;5.624;2023-04-24T11:35:12;6.63;;;1.90;;
7195;SDS011;3639;51.308;5.624;2023-04-24T11:37:43;1.83;;;1.70;;
7195;SDS011;3639;51.308;5.624;2023-04-24T11:40:14;2.40;;;1.57;;
7195;SDS011;3639;51.308;5.624;2023-04-24T11:42:41;10.07;;;1.90;;
7195;SDS011;3639;51.308;5.624;2023-04-24T11:45:09;3.70;;;1.83;;
7195;SDS011;3639;51.308;5.624;2023-04-24T11:47:37;2.33;;;1.50;;
7195;SDS011;3639;51.308;5.624;2023-04-24T11:50:03;2.60;;;1.50;;
7195;SDS011;3639;51.308;5.624;2023-04-24T11:52:30;6.33;;;1.80;;
7195;SDS011;3639;51.308;5.624;2023-04-24T11:54:56;1.40;;;1.30;;
7195;SDS011;3639;51.308;5.624;2023-04-24T11:57:23;1.60;;;1.40;;
7195;SDS011;3639;51.308;5.624;2023-04-24T11:59:52;1.60;;;1.50;;
7195;SDS011;3639;51.308;5.624;2023-04-24T12:02:25;4.17;;;1.33;;
7195;SDS011;3639;51.308;5.624;2023-04-24T12:04:52;5.10;;;1.53;;
7195;SDS011;3639;51.308;5.624;2023-04-24T12:07:18;1.67;;;1.50;;
7195;SDS011;3639;51.308;5.624;2023-04-24T12:09:54;3.67;;;1.50;;
7195;SDS011;3639;51.308;5.624;2023-04-24T12:12:24;2.10;;;1.60;;
7195;SDS011;3639;51.308;5.624;2023-04-24T12:14:55;3.00;;;1.57;;
7195;SDS011;3639;51.308;5.624;2023-04-24T12:19:51;2.90;;;1.70;;
7195;SDS011;3639;51.308;5.624;2023-04-24T12:22:25;4.17;;;1.87;;
7195;SDS011;3639;51.308;5.624;2023-04-24T12:27:27;3.60;;;1.33;;
7195;SDS011;3639;51.308;5.624;2023-04-24T12:29:58;2.47;;;1.13;;
7195;SDS011;3639;51.308;5.624;2023-04-24T12:32:25;4.77;;;1.93;;
7195;SDS011;3639;51.308;5.624;2023-04-24T12:34:51;1.47;;;1.33;;
7195;SDS011;3639;51.308;5.624;2023-04-24T12:37:18;1.57;;;1.40;;
7195;SDS011;3639;51.308;5.624;2023-04-24T12:39:44;3.57;;;2.13;;
7195;SDS011;3639;51.308;5.624;2023-04-24T12:42:27;2.17;;;1.40;;
7195;SDS011;3639;51.308;5.624;2023-04-24T12:44:57;3.23;;;1.43;;
7195;SDS011;3639;51.308;5.624;2023-04-24T12:47:25;1.60;;;1.50;;
7195;SDS011;3639;51.308;5.624;2023-04-24T12:49:50;2.70;;;2.03;;
7195;SDS011;3639;51.308;5.624;2023-04-24T12:52:17;4.03;;;1.40;;
7195;SDS011;3639;51.308;5.624;2023-04-24T12:54:45;2.00;;;1.43;;
7195;SDS011;3639;51.308;5.624;2023-04-24T12:57:11;1.50;;;1.40;;
7195;SDS011;3639;51.308;5.624;2023-04-24T12:59:37;3.53;;;1.60;;
7195;SDS011;3639;51.308;5.624;2023-04-24T13:02:04;2.27;;;1.47;;
7195;SDS011;3639;51.308;5.624;2023-04-24T13:04:30;4.57;;;1.70;;
7195;SDS011;3639;51.308;5.624;2023-04-24T13:06:55;1.37;;;1.27;;
7195;SDS011;3639;51.308;5.624;2023-04-24T13:09:21;2.70;;;1.70;;
7195;SDS011;3639;51.308;5.624;2023-04-24T13:11:47;4.87;;;1.90;;
7195;SDS011;3639;51.308;5.624;2023-04-24T13:14:17;2.70;;;1.50;;
7195;SDS011;3639;51.308;5.624;2023-04-24T13:16:43;5.73;;;1.80;;
7195;SDS011;3639;51.308;5.624;2023-04-24T13:19:08;3.37;;;1.60;;
7195;SDS011;3639;51.308;5.624;2023-04-24T13:21:34;4.97;;;1.77;;
7195;SDS011;3639;51.308;5.624;2023-04-24T13:24:00;3.40;;;1.70;;
7195;SDS011;3639;51.308;5.624;2023-04-24T13:26:26;4.97;;;1.70;;
7195;SDS011;3639;51.308;5.624;2023-04-24T13:28:51;2.83;;;1.80;;
7195;SDS011;3639;51.308;5.624;2023-04-24T13:31:17;4.43;;;1.70;;
7195;SDS011;3639;51.308;5.624;2023-04-24T13:33:43;2.57;;;1.60;;
7195;SDS011;3639;51.308;5.624;2023-04-24T13:36:08;4.77;;;1.80;;
7195;SDS011;3639;51.308;5.624;2023-04-24T13:38:34;6.67;;;2.17;;
7195;SDS011;3639;51.308;5.624;2023-04-24T13:41:00;3.27;;;2.10;;
7195;SDS011;3639;51.308;5.624;2023-04-24T13:43:25;2.20;;;1.93;;
7195;SDS011;3639;51.308;5.624;2023-04-24T13:45:51;5.57;;;1.80;;
7195;SDS011;3639;51.308;5.624;2023-04-24T13:48:17;3.93;;;2.00;;
7195;SDS011;3639;51.308;5.624;2023-04-24T13:50:43;3.63;;;1.83;;
7195;SDS011;3639;51.308;5.624;2023-04-24T13:53:09;3.87;;;1.57;;
7195;SDS011;3639;51.308;5.624;2023-04-24T13:55:35;1.70;;;1.60;;
7195;SDS011;3639;51.308;5.624;2023-04-24T13:58:01;1.67;;;1.33;;
7195;SDS011;3639;51.308;5.624;2023-04-24T14:00:27;2.37;;;1.60;;
7195;SDS011;3639;51.308;5.624;2023-04-24T14:02:53;2.03;;;1.47;;
7195;SDS011;3639;51.308;5.624;2023-04-24T14:05:19;2.27;;;1.50;;
7195;SDS011;3639;51.308;5.624;2023-04-24T14:07:46;1.50;;;1.33;;
7195;SDS011;3639;51.308;5.624;2023-04-24T14:10:12;2.53;;;1.80;;
7195;SDS011;3639;51.308;5.624;2023-04-24T14:12:38;1.57;;;1.40;;
7195;SDS011;3639;51.308;5.624;2023-04-24T14:15:04;4.40;;;1.60;;
7195;SDS011;3639;51.308;5.624;2023-04-24T14:17:30;2.90;;;1.70;;
7195;SDS011;3639;51.308;5.624;2023-04-24T14:19:56;5.83;;;2.60;;
7195;SDS011;3639;51.308;5.624;2023-04-24T14:22:21;4.00;;;1.93;;
7195;SDS011;3639;51.308;5.624;2023-04-24T14:24:47;2.10;;;1.87;;
7195;SDS011;3639;51.308;5.624;2023-04-24T14:27:13;3.03;;;1.77;;
7195;SDS011;3639;51.308;5.624;2023-04-24T14:29:39;2.20;;;1.73;;
7195;SDS011;3639;51.308;5.624;2023-04-24T14:32:04;3.20;;;1.93;;
7195;SDS011;3639;51.308;5.624;2023-04-24T14:34:30;2.03;;;1.77;;
7195;SDS011;3639;51.308;5.624;2023-04-24T14:36:55;2.93;;;1.83;;
